createdAt,value
2023-05-21T16:33:00.683Z,24.9763
2023-05-21T16:34:03.595Z,24.9217
2023-05-21T16:35:06.538Z,24.8388
2023-05-21T16:36:09.487Z,24.8340
2023-05-21T16:37:12.455Z,24.7289
2023-05-21T16:38:15.435Z,24.8357
2023-05-21T16:39:18.376Z,24.8525
2023-05-21T16:40:21.318Z,24.8077
2023-05-21T16:41:24.306Z,24.8741
2023-05-21T16:42:27.323Z,24.8747
2023-05-21T16:43:30.223Z,24.8583
2023-05-21T16:44:33.172Z,24.9306
2023-05-21T16:45:36.339Z,24.8741
2023-05-21T16:46:39.174Z,24.8753
2023-05-21T16:47:42.181Z,24.8938
2023-05-21T16:48:44.995Z,24.8700
2023-05-21T16:49:48.007Z,24.8593
2023-05-21T16:50:50.933Z,24.8655
2023-05-21T16:51:53.897Z,24.8786
2023-05-21T16:52:56.837Z,24.8562
2023-05-21T16:53:59.803Z,24.8659
2023-05-21T16:55:02.790Z,24.8453
2023-05-21T16:56:05.781Z,24.9024
2023-05-21T16:57:08.679Z,24.8225
2023-05-21T16:58:11.643Z,24.8412
2023-05-21T16:59:14.605Z,24.8213
2023-05-21T17:00:17.580Z,24.8139
2023-05-21T17:01:20.628Z,24.8322
2023-05-21T17:02:23.560Z,24.8375
2023-05-21T17:03:26.477Z,24.7453
2023-05-21T17:04:29.453Z,24.7623
2023-05-21T17:05:32.388Z,24.7936
2023-05-21T17:06:35.314Z,24.7673
2023-05-21T17:07:38.274Z,24.7654
2023-05-21T17:08:41.245Z,24.7855
2023-05-21T17:09:44.256Z,24.7971
2023-05-21T17:10:47.419Z,24.7761
2023-05-21T17:11:50.140Z,24.7492
2023-05-21T17:12:53.129Z,24.7533
2023-05-21T17:13:56.053Z,24.7461
2023-05-21T17:14:59.017Z,24.7753
2023-05-21T17:16:02.001Z,24.7432
2023-05-21T17:17:04.927Z,24.7710
2023-05-21T17:18:07.932Z,24.7149
2023-05-21T17:19:10.894Z,24.7473
2023-05-21T17:20:13.787Z,24.7073
2023-05-21T17:21:16.767Z,24.7194
2023-05-21T17:22:19.894Z,24.6370
2023-05-21T17:23:22.765Z,24.4967
2023-05-21T17:24:25.615Z,24.6038
2023-05-21T17:25:28.572Z,24.6021
2023-05-21T17:26:31.568Z,24.5799
2023-05-21T17:27:34.509Z,24.5935
2023-05-21T17:28:37.453Z,24.5974
2023-05-21T17:29:40.403Z,24.5703
2023-05-21T17:30:43.373Z,24.5619
2023-05-21T17:31:46.366Z,24.5584
2023-05-21T17:32:49.309Z,24.5183
2023-05-21T17:33:52.261Z,24.5508
2023-05-21T17:34:55.203Z,24.5015
2023-05-21T17:35:58.180Z,24.4978
2023-05-21T17:37:01.111Z,24.5082
2023-05-21T17:38:04.130Z,24.4240
2023-05-21T17:39:07.051Z,24.4403
2023-05-21T17:40:09.999Z,24.3844
2023-05-21T17:41:12.952Z,24.4187
2023-05-21T17:42:15.902Z,24.3634
2023-05-21T17:43:18.858Z,24.3523
2023-05-21T17:44:21.852Z,24.2593
2023-05-21T17:45:24.782Z,24.2821
2023-05-21T17:46:27.768Z,24.3261
2023-05-21T17:47:30.708Z,24.3226
2023-05-21T17:48:33.645Z,24.2774
2023-05-21T17:49:36.683Z,24.2367
2023-05-21T17:50:39.557Z,24.2677
2023-05-21T17:51:42.516Z,24.2051
2023-05-21T17:52:45.501Z,24.2215
2023-05-21T17:53:48.432Z,24.2190
2023-05-21T17:54:51.376Z,24.2439
2023-05-21T17:55:54.551Z,24.1525
2023-05-21T17:56:57.290Z,24.1720
2023-05-21T17:58:00.233Z,24.1461
2023-05-21T17:59:03.195Z,24.1566
2023-05-21T18:00:06.141Z,24.1317
2023-05-21T18:01:09.125Z,24.0839
2023-05-21T18:02:12.085Z,24.0444
2023-05-21T18:03:15.103Z,23.9713
2023-05-21T18:04:18.051Z,23.8187
2023-05-21T18:05:20.932Z,23.8639
2023-05-21T18:06:23.914Z,23.9444
2023-05-21T18:07:26.846Z,23.9161
2023-05-21T18:08:29.878Z,23.9046
2023-05-21T18:09:32.759Z,23.8645
2023-05-21T18:10:35.712Z,23.8583
2023-05-21T18:11:38.693Z,23.8162
2023-05-21T18:12:41.634Z,23.8033
2023-05-21T18:13:44.599Z,23.7729
2023-05-21T18:14:47.675Z,23.7762
2023-05-21T18:15:50.509Z,23.7449
2023-05-21T18:16:53.541Z,23.6554
2023-05-21T18:17:56.541Z,23.6724
2023-05-21T18:18:59.449Z,23.6402
2023-05-21T18:20:02.357Z,23.5693
2023-05-21T18:21:05.275Z,23.5554
2023-05-21T18:22:08.256Z,23.5270
2023-05-21T18:23:11.197Z,23.4666
2023-05-21T18:24:14.160Z,23.4566
2023-05-21T18:25:17.124Z,23.4707
2023-05-21T18:26:20.602Z,23.4103
2023-05-21T18:27:23.078Z,23.3358
2023-05-21T18:28:26.036Z,23.3286
2023-05-21T18:29:28.911Z,23.2678
2023-05-21T18:30:31.875Z,23.3074
2023-05-21T18:31:34.915Z,23.2119
2023-05-21T18:32:37.833Z,23.1152
2023-05-21T18:33:40.734Z,23.0882
2023-05-21T18:34:43.706Z,23.0624
2023-05-21T18:35:46.714Z,22.9611
2023-05-21T18:36:49.600Z,23.0211
2023-05-21T18:37:52.573Z,22.9408
2023-05-21T18:38:55.533Z,22.9426
2023-05-21T18:39:58.488Z,22.9463
2023-05-21T18:41:01.421Z,22.8985
2023-05-21T18:42:12.832Z,22.7740
2023-05-21T18:43:07.316Z,22.7612
2023-05-21T18:44:10.341Z,22.8035
2023-05-21T18:45:13.226Z,22.7569
2023-05-21T18:46:16.247Z,22.7395
2023-05-21T18:47:19.142Z,22.7245
2023-05-21T18:48:22.093Z,22.6620
2023-05-21T18:49:25.043Z,22.6318
2023-05-21T18:50:27.961Z,22.6610
2023-05-21T18:51:30.926Z,22.6542
2023-05-21T18:52:33.870Z,22.5875
2023-05-21T18:53:36.811Z,22.5462
2023-05-21T18:54:39.752Z,22.4297
2023-05-21T18:55:42.727Z,22.4330
2023-05-21T18:56:45.666Z,22.3235
2023-05-21T18:57:48.607Z,22.3206
2023-05-21T18:58:51.556Z,22.2847
2023-05-21T18:59:54.511Z,22.2502
2023-05-21T19:00:57.450Z,22.2440
2023-05-21T19:02:00.451Z,22.2099
2023-05-21T19:03:03.408Z,22.1577
2023-05-21T19:04:06.326Z,22.1516
2023-05-21T19:05:09.333Z,22.0988
2023-05-21T19:06:12.322Z,21.9158
2023-05-21T19:07:15.139Z,22.0546
2023-05-21T19:08:18.086Z,22.0086
2023-05-21T19:09:21.115Z,22.0029
2023-05-21T19:10:24.089Z,21.8667
2023-05-21T19:11:27.072Z,21.9113
2023-05-21T19:12:29.902Z,21.9870
2023-05-21T19:13:32.928Z,21.9470
2023-05-21T19:14:35.798Z,21.9147
2023-05-21T19:15:38.882Z,21.9104
2023-05-21T19:16:41.817Z,21.8513
2023-05-21T19:17:44.652Z,21.8659
2023-05-21T19:18:47.646Z,21.7673
2023-05-21T19:19:50.599Z,21.7510
2023-05-21T19:20:53.491Z,21.7726
2023-05-21T19:21:56.501Z,21.6847
2023-05-21T19:22:59.421Z,21.6122
2023-05-21T19:24:04.853Z,21.6175
2023-05-21T19:25:05.314Z,21.5549
2023-05-21T19:26:08.270Z,21.5627
2023-05-21T19:27:11.332Z,21.5101
2023-05-21T19:28:14.232Z,21.4924
2023-05-21T19:29:17.138Z,21.3361
2023-05-21T19:30:20.170Z,21.4287
2023-05-21T19:31:23.276Z,21.3143
2023-05-21T19:32:26.055Z,21.4308
2023-05-21T19:33:29.049Z,21.3478
2023-05-21T19:34:32.031Z,21.3544
2023-05-21T19:35:34.944Z,21.3332
2023-05-21T19:36:51.647Z,21.2628
2023-05-21T19:37:40.734Z,21.2693
2023-05-21T19:38:43.677Z,21.2757
2023-05-21T19:39:46.696Z,21.2057
2023-05-21T19:40:49.575Z,21.1646
2023-05-21T19:41:52.549Z,21.1975
2023-05-21T19:42:55.490Z,21.0867
2023-05-21T19:43:58.436Z,21.0255
2023-05-21T19:45:01.363Z,21.0802
2023-05-21T19:46:04.383Z,20.9633
2023-05-21T19:47:07.286Z,21.0296
2023-05-21T19:48:10.275Z,21.0888
2023-05-21T19:49:13.314Z,20.9526
2023-05-21T19:50:16.214Z,20.9300
2023-05-21T19:51:19.138Z,20.9489
2023-05-21T19:52:22.087Z,20.9425
2023-05-21T19:53:24.978Z,21.0167
2023-05-21T19:54:27.969Z,20.8922
2023-05-21T19:55:30.883Z,20.8468
2023-05-21T19:56:33.847Z,20.9037
2023-05-21T19:57:36.778Z,20.8813
2023-05-21T19:58:39.735Z,20.8154
2023-05-21T19:59:42.693Z,20.7538
2023-05-21T20:00:45.957Z,20.6406
2023-05-21T20:01:48.602Z,20.3842
2023-05-21T20:02:51.609Z,20.2458
2023-05-21T20:03:54.604Z,20.2341
2023-05-21T20:04:57.563Z,20.1671
2023-05-21T20:06:00.404Z,20.1014
2023-05-21T20:07:03.352Z,19.8876
2023-05-21T20:08:06.334Z,19.7423
2023-05-21T20:09:09.283Z,19.7635
2023-05-21T20:10:12.287Z,19.8118
2023-05-21T20:11:15.157Z,19.7848
2023-05-21T20:12:18.064Z,19.7809
2023-05-21T20:13:21.238Z,19.6688
2023-05-21T20:14:23.957Z,19.7881
2023-05-21T20:15:27.072Z,19.7787
2023-05-21T20:16:29.864Z,19.6731
2023-05-21T20:17:32.937Z,19.5985
2023-05-21T20:18:35.765Z,19.5084
2023-05-21T20:19:38.768Z,19.4050
2023-05-21T20:20:41.843Z,19.2804
2023-05-21T20:21:44.600Z,19.3718
2023-05-21T20:22:47.551Z,19.2288
2023-05-21T20:23:50.841Z,19.1382
2023-05-21T20:24:53.577Z,19.1544
2023-05-21T20:25:56.401Z,19.1803
2023-05-21T20:26:59.349Z,19.1910
2023-05-21T20:28:02.302Z,19.1076
2023-05-21T20:29:05.256Z,19.1372
2023-05-21T20:30:08.511Z,19.1883
2023-05-21T20:31:11.239Z,19.1684
2023-05-21T20:32:14.080Z,19.0897
2023-05-21T20:33:17.457Z,19.0230
2023-05-21T20:34:19.996Z,18.9862
2023-05-21T20:35:22.967Z,19.0146
2023-05-21T20:36:25.987Z,19.0328
2023-05-21T20:37:28.927Z,18.8899
2023-05-21T20:38:31.934Z,18.9577
2023-05-21T20:39:34.849Z,18.7319
2023-05-21T20:40:37.916Z,18.9414
2023-05-21T20:41:40.749Z,18.8876
2023-05-21T20:42:43.701Z,18.7933
2023-05-21T20:43:46.642Z,18.7430
2023-05-21T20:44:49.602Z,18.7759
2023-05-21T20:45:52.582Z,18.7444
2023-05-21T20:46:55.563Z,18.8357
2023-05-21T20:47:58.629Z,18.8759
2023-05-21T20:49:01.537Z,18.8102
2023-05-21T20:50:04.391Z,18.9088
2023-05-21T20:51:07.384Z,18.8560
2023-05-21T20:52:10.318Z,18.7931
2023-05-21T20:53:13.239Z,18.7510
2023-05-21T20:54:16.692Z,18.7494
2023-05-21T20:55:19.169Z,18.7216
2023-05-21T20:56:39.896Z,18.7323
2023-05-21T20:57:25.163Z,18.7603
2023-05-21T20:58:28.021Z,18.7506
2023-05-21T20:59:30.951Z,18.7510
2023-05-21T21:00:33.926Z,18.7130
2023-05-21T21:01:36.875Z,18.8038
2023-05-21T21:02:40.024Z,18.6968
2023-05-21T21:03:42.846Z,18.6563
2023-05-21T21:04:45.741Z,18.6393
2023-05-21T21:05:48.674Z,18.6319
2023-05-21T21:06:51.641Z,18.7040
2023-05-21T21:07:55.887Z,18.6463
2023-05-21T21:08:57.564Z,18.4639
2023-05-21T21:10:00.571Z,18.6044
2023-05-21T21:11:03.480Z,18.6074
2023-05-21T21:12:17.861Z,18.5242
2023-05-21T21:13:09.397Z,18.5134
2023-05-21T21:14:12.317Z,18.4941
2023-05-21T21:15:15.270Z,18.4984
2023-05-21T21:16:18.281Z,18.5054
2023-05-21T21:17:21.278Z,18.3780
2023-05-21T21:18:24.130Z,18.4330
2023-05-21T21:19:27.259Z,18.4723
2023-05-21T21:20:30.181Z,18.2580
2023-05-21T21:21:32.980Z,18.4220
2023-05-21T21:22:35.910Z,18.4293
2023-05-21T21:23:38.866Z,18.4076
2023-05-21T21:24:41.824Z,18.3895
2023-05-21T21:25:44.766Z,18.4357
2023-05-21T21:26:47.705Z,18.2932
2023-05-21T21:27:50.658Z,18.3513
2023-05-21T21:28:53.606Z,18.2402
2023-05-21T21:29:56.553Z,18.2613
2023-05-21T21:30:59.517Z,18.3630
2023-05-21T21:32:02.575Z,18.3147
2023-05-21T21:33:05.575Z,18.2819
2023-05-21T21:34:08.406Z,18.3665
2023-05-21T21:35:11.309Z,18.3371
2023-05-21T21:36:14.429Z,18.2936
2023-05-21T21:37:17.187Z,18.2638
2023-05-21T21:38:20.165Z,18.2463
2023-05-21T21:39:23.097Z,18.2430
2023-05-21T21:40:26.034Z,18.2693
2023-05-21T21:41:28.973Z,18.2011
2023-05-21T21:42:32.031Z,18.2334
2023-05-21T21:43:34.884Z,18.1605
2023-05-21T21:44:37.828Z,18.2094
2023-05-21T21:45:40.776Z,18.2467
2023-05-21T21:46:43.739Z,18.2488
2023-05-21T21:47:46.814Z,18.3367
2023-05-21T21:48:49.633Z,18.2597
2023-05-21T21:49:52.570Z,18.2192
2023-05-21T21:50:55.723Z,18.2371
2023-05-21T21:51:58.478Z,18.2196
2023-05-21T21:53:01.420Z,18.2474
2023-05-21T21:54:04.386Z,18.3082
2023-05-21T21:55:07.347Z,18.2204
2023-05-21T21:56:10.262Z,18.2087
2023-05-21T21:57:13.216Z,18.2658
2023-05-21T21:58:16.163Z,18.2061
2023-05-21T21:59:19.129Z,18.2122
2023-05-21T22:00:22.075Z,18.2410
2023-05-21T22:01:25.118Z,18.2465
2023-05-21T22:02:28.022Z,18.1787
2023-05-21T22:03:30.919Z,18.1432
2023-05-21T22:04:33.905Z,18.0978
2023-05-21T22:05:36.818Z,18.1759
2023-05-21T22:06:39.780Z,18.1656
2023-05-21T22:07:42.737Z,18.1395
2023-05-21T22:08:45.693Z,18.1044
2023-05-21T22:09:48.618Z,18.1381
2023-05-21T22:10:51.568Z,18.1167
2023-05-21T22:11:54.516Z,18.0483
2023-05-21T22:12:57.433Z,18.0682
2023-05-21T22:14:00.436Z,18.2098
2023-05-21T22:15:03.345Z,18.1356
2023-05-21T22:16:06.335Z,18.0368
2023-05-21T22:17:09.352Z,17.9438
2023-05-21T22:18:12.250Z,18.0087
2023-05-21T22:19:15.163Z,18.0746
2023-05-21T22:20:18.087Z,18.0304
2023-05-21T22:21:21.021Z,18.0641
2023-05-21T22:22:23.973Z,18.0574
2023-05-21T22:23:26.913Z,18.0629
2023-05-21T22:24:32.987Z,18.0206
2023-05-21T22:25:32.850Z,18.0489
2023-05-21T22:26:35.790Z,18.0678
2023-05-21T22:27:38.764Z,18.0200
2023-05-21T22:28:41.676Z,17.8713
2023-05-21T22:29:44.620Z,17.9670
2023-05-21T22:30:47.600Z,18.0317
2023-05-21T22:31:50.544Z,17.8421
2023-05-21T22:32:53.511Z,17.8287
2023-05-21T22:33:56.438Z,17.9201
2023-05-21T22:34:59.382Z,17.9427
2023-05-21T22:36:02.331Z,17.9399
2023-05-21T22:37:05.272Z,17.8135
2023-05-21T22:38:08.218Z,17.8916
2023-05-21T22:39:11.355Z,17.6878
2023-05-21T22:40:14.102Z,17.7747
2023-05-21T22:41:17.078Z,17.7805
2023-05-21T22:42:20.019Z,17.5488
2023-05-21T22:43:22.996Z,17.5677
2023-05-21T22:44:25.921Z,17.5878
2023-05-21T22:45:28.892Z,17.6940
2023-05-21T22:46:31.844Z,17.7297
2023-05-21T22:47:34.830Z,17.7757
2023-05-21T22:48:37.713Z,17.6239
2023-05-21T22:49:40.750Z,17.5457
2023-05-21T22:50:43.623Z,17.6369
2023-05-21T22:51:46.598Z,17.5843
2023-05-21T22:52:49.522Z,17.6338
2023-05-21T22:53:52.499Z,17.7238
2023-05-21T22:54:55.420Z,17.4689
2023-05-21T22:55:58.368Z,17.5360
2023-05-21T22:57:01.318Z,17.5210
2023-05-21T22:58:04.287Z,17.5789
2023-05-21T22:59:07.223Z,17.4929
2023-05-21T23:00:10.185Z,17.4941
2023-05-21T23:01:13.115Z,17.6223
2023-05-21T23:02:16.173Z,17.4945
2023-05-21T23:03:18.998Z,17.4539
2023-05-21T23:04:32.136Z,17.3974
2023-05-21T23:05:24.932Z,17.4514
2023-05-21T23:06:27.901Z,17.3996
2023-05-21T23:07:30.825Z,17.3664
2023-05-21T23:08:33.776Z,17.4469
2023-05-21T23:09:36.749Z,17.5453
2023-05-21T23:10:39.978Z,17.4610
2023-05-21T23:11:42.646Z,17.4060
2023-05-21T23:12:45.620Z,17.3719
2023-05-21T23:13:48.577Z,17.2238
2023-05-21T23:14:51.516Z,17.2573
2023-05-21T23:15:54.534Z,17.2265
2023-05-21T23:16:57.401Z,17.2423
2023-05-21T23:18:00.419Z,17.3134
2023-05-21T23:19:03.369Z,17.2563
2023-05-21T23:20:06.300Z,17.2908
2023-05-21T23:21:09.281Z,17.2219
2023-05-21T23:22:12.204Z,17.2024
2023-05-21T23:23:15.116Z,17.2367
2023-05-21T23:24:18.079Z,17.1957
2023-05-21T23:25:21.106Z,17.0948
2023-05-21T23:26:23.977Z,17.1817
2023-05-21T23:27:26.936Z,17.0936
2023-05-21T23:28:29.870Z,17.1020
2023-05-21T23:29:32.835Z,17.0521
2023-05-21T23:30:35.825Z,17.0367
2023-05-21T23:31:38.743Z,16.9007
2023-05-21T23:32:41.726Z,16.7281
2023-05-21T23:33:44.633Z,16.8060
2023-05-21T23:34:47.610Z,16.5240
2023-05-21T23:35:50.617Z,16.7501
2023-05-21T23:36:53.498Z,16.7824
2023-05-21T23:37:56.464Z,16.7914
2023-05-21T23:38:59.397Z,16.7306
2023-05-21T23:40:02.360Z,16.6963
2023-05-21T23:41:05.279Z,16.6638
2023-05-21T23:42:08.242Z,16.5583
2023-05-21T23:43:11.182Z,16.5874
2023-05-21T23:44:14.199Z,16.4508
2023-05-21T23:45:17.097Z,16.3151
2023-05-21T23:46:20.106Z,16.3594
2023-05-21T23:47:22.997Z,16.3907
2023-05-21T23:48:25.978Z,16.2596
2023-05-21T23:49:28.886Z,16.0762
2023-05-21T23:50:31.864Z,16.1468
2023-05-21T23:51:34.826Z,16.2311
2023-05-21T23:52:37.781Z,16.4250
2023-05-21T23:53:40.701Z,16.3600
2023-05-21T23:54:43.655Z,16.4400
2023-05-21T23:55:46.599Z,16.3403
2023-05-21T23:56:49.569Z,16.2187
2023-05-21T23:57:52.508Z,15.9488
2023-05-21T23:58:55.469Z,16.0404
2023-05-21T23:59:58.400Z,16.0889
